^^
Weerstation Genderen Historische Gegevens
 
Daily Summary for May 19, 2022 Units:  Metric    English   Both
Daily Weekly Monthly Yearly
  Current: High: Low: Average:
Temperature: 17.2 °C 24.6 °C 16.5 °C 18.8 °C
Dew Point: 7.8 °C 18.3 °C -29 °C -6.9 °C
Humidity: 54% 71% 3% 32%
Wind Speed: 13km/h 39.9km/h 0.1km/h 8.2km/h
Wind Gust: 10.5km/h 37km/h - -
WindWNW - - South
Pressure: 1019.7 hPa 1019.7 hPa 1015.0 hPa -
Precipitation: 30.4 mm      
 
 
Tabular Data for May 19, 2022
Time Temperature Dew Point Pressure Wind Wind Speed Wind Gust Humidity Rainfall Rate (Hourly) solar
00:04 18.4 °C 11.1 °C 1018.0 hPa ESE 7.5 km/h 6.3 km/h 62.5% 0.0 mm W/m2
00:09 18.4 °C 10.6 °C 1017.9 hPa ESE 7.3 km/h 5.5 km/h 60.4% 0.0 mm W/m2
00:14 18.4 °C 10.2 °C 1017.8 hPa East 6.8 km/h 7.2 km/h 58.6% 0.0 mm W/m2
00:19 18.5 °C 10 °C 1017.7 hPa East 6.5 km/h 4.8 km/h 57.7% 0.0 mm W/m2
00:24 18.5 °C 9.8 °C 1017.6 hPa ESE 6.7 km/h 6.6 km/h 56.9% 0.0 mm W/m2
00:29 18.5 °C 9.6 °C 1017.6 hPa ESE 7.1 km/h 5.1 km/h 56% 0.0 mm W/m2
00:34 18.6 °C 9.6 °C 1017.5 hPa ESE 8 km/h 6.6 km/h 55.9% 0.0 mm W/m2
00:39 18.6 °C 9.3 °C 1017.4 hPa ESE 9.9 km/h 8.5 km/h 55% 0.0 mm W/m2
00:44 18.6 °C 9.4 °C 1017.4 hPa ESE 8 km/h 7.6 km/h 55% 0.0 mm W/m2
00:49 18.6 °C 9.4 °C 1017.3 hPa East 10.2 km/h 8.7 km/h 55% 0.0 mm W/m2
00:54 18.6 °C 9.4 °C 1017.2 hPa ESE 10.4 km/h 9.3 km/h 55% 0.0 mm W/m2
00:59 18.7 °C 9.6 °C 1017.2 hPa ESE 11.1 km/h 8.7 km/h 55.6% 0.0 mm W/m2
01:04 18.7 °C 9.7 °C 1017.2 hPa ESE 9.2 km/h 8 km/h 56% 0.0 mm W/m2
01:09 18.7 °C 9.8 °C 1017.2 hPa ESE 8.2 km/h 6 km/h 56% 0.0 mm W/m2
01:14 18.7 °C 9.7 °C 1017.1 hPa ESE 7.3 km/h 6.6 km/h 56% 0.0 mm W/m2
01:19 18.7 °C 9.7 °C 1017.1 hPa ESE 6 km/h 4.5 km/h 56% 0.0 mm W/m2
01:24 18.6 °C 9.4 °C 1017.1 hPa ESE 6.4 km/h 6.1 km/h 55% 0.0 mm W/m2
01:29 18.6 °C 9.1 °C 1017.1 hPa ESE 8.3 km/h 6.4 km/h 54% 0.0 mm W/m2
01:34 18.6 °C 9 °C 1017.0 hPa ESE 6.1 km/h 4.8 km/h 53.9% 0.0 mm W/m2
01:39 18.6 °C 8.8 °C 1017.0 hPa ESE 6 km/h 4.8 km/h 53% 0.0 mm W/m2
01:44 18.6 °C 8.8 °C 1017.0 hPa ESE 7.1 km/h 6.3 km/h 53% 0.0 mm W/m2
01:49 18.6 °C 8.8 °C 1016.8 hPa ESE 7.6 km/h 6.4 km/h 53% 0.0 mm W/m2
01:54 18.6 °C 8.8 °C 1016.8 hPa ESE 7.1 km/h 6.3 km/h 53% 0.0 mm W/m2
01:59 18.5 °C 8.7 °C 1016.7 hPa ESE 5.9 km/h 3.5 km/h 53% 0.0 mm W/m2
02:04 18.5 °C 8.7 °C 1016.6 hPa ESE 6.5 km/h 4.5 km/h 53% 0.0 mm W/m2
02:09 18.5 °C 8.6 °C 1016.6 hPa ESE 7.4 km/h 7.6 km/h 52.9% 0.0 mm W/m2
02:14 18.4 °C 8.4 °C 1016.5 hPa ESE 7.2 km/h 7.4 km/h 52% 0.0 mm W/m2
02:19 18.4 °C 8.3 °C 1016.4 hPa ESE 7 km/h 5.8 km/h 52% 0.0 mm W/m2
02:24 18.4 °C 8.4 °C 1016.5 hPa ESE 8.5 km/h 6.6 km/h 52.4% 0.0 mm W/m2
02:29 18.3 °C 8.6 °C 1016.5 hPa ESE 7.3 km/h 5.1 km/h 53% 0.0 mm W/m2
02:34 18.3 °C 8.6 °C 1016.4 hPa ESE 5.9 km/h 6.3 km/h 53.3% 0.0 mm W/m2
02:39 18.3 °C 8.8 °C 1016.4 hPa ESE 6.7 km/h 6 km/h 54% 0.0 mm W/m2
02:44 18.3 °C 9.1 °C 1016.3 hPa ESE 6.3 km/h 6 km/h 54.8% 0.0 mm W/m2
02:49 18.3 °C 9.1 °C 1016.2 hPa ESE 7 km/h 6.3 km/h 55% 0.0 mm W/m2
02:54 18.3 °C 9.3 °C 1016.1 hPa ESE 6.6 km/h 6.3 km/h 55.7% 0.0 mm W/m2
02:59 18.3 °C 9.4 °C 1016.0 hPa ESE 6.5 km/h 6.4 km/h 56% 0.0 mm W/m2
03:04 18.3 °C 9.3 °C 1016.0 hPa ESE 7.1 km/h 5.8 km/h 56% 0.0 mm W/m2
03:09 18.3 °C 9.1 °C 1015.9 hPa ESE 7.4 km/h 7.4 km/h 55.1% 0.0 mm W/m2
03:14 18.3 °C 9.1 °C 1015.6 hPa ESE 6.8 km/h 7.6 km/h 55% 0.0 mm W/m2
03:19 18.3 °C 9 °C 1015.5 hPa ESE 6.4 km/h 6.9 km/h 54.8% 0.0 mm W/m2
03:24 18.3 °C 8.8 °C 1015.5 hPa ESE 8 km/h 7.6 km/h 54% 0.0 mm W/m2
03:29 18.3 °C 8.8 °C 1015.4 hPa ESE 8.2 km/h 6.9 km/h 53.8% 0.0 mm W/m2
03:34 18.3 °C 8.5 °C 1015.4 hPa ESE 8.1 km/h 7.4 km/h 53% 0.0 mm W/m2
03:39 18.2 °C 8.4 °C 1015.5 hPa ESE 7 km/h 7.1 km/h 52.5% 0.0 mm W/m2
03:44 18.2 °C 8.2 °C 1015.5 hPa ESE 5.5 km/h 3.4 km/h 52% 0.0 mm W/m2
03:49 18.2 °C 7.9 °C 1015.5 hPa ESE 6.1 km/h 5.3 km/h 51% 0.0 mm W/m2
03:54 18.3 °C 7.9 °C 1015.4 hPa ESE 6.3 km/h 5.5 km/h 51% 0.0 mm W/m2
03:59 18.3 °C 7.9 °C 1015.4 hPa ESE 5.5 km/h 3.7 km/h 51% 0.0 mm W/m2
04:04 18.3 °C 8 °C 1015.3 hPa ESE 4.7 km/h 3.7 km/h 51% 0.0 mm W/m2
04:09 18.3 °C 8 °C 1015.2 hPa ESE 5.5 km/h 3.1 km/h 51% 0.0 mm W/m2
04:14 18.3 °C 8 °C 1015.2 hPa ESE 3.1 km/h 2.6 km/h 51% 0.0 mm W/m2
04:19 18.3 °C 7.9 °C 1015.3 hPa SE 4.9 km/h 3.5 km/h 50.7% 0.0 mm W/m2
04:24 18.3 °C 7.7 °C 1015.3 hPa SE 5.2 km/h 2.6 km/h 50% 0.0 mm W/m2
04:29 18.3 °C 7.7 °C 1015.4 hPa SE 4.6 km/h 3.5 km/h 50% 0.0 mm W/m2
04:34 18.3 °C 7.7 °C 1016.3 hPa South 7.5 km/h 8.5 km/h 49.8% 0.0 mm W/m2
04:39 18.3 °C 6.7 °C 1017.7 hPa WNW 26.6 km/h 21.4 km/h 46.6% 0.0 mm W/m2
04:44 18.8 °C 8 °C 1017.2 hPa WNW 26.4 km/h 20.3 km/h 49.6% 0.0 mm W/m2
04:49 19.4 °C 11.3 °C 1017.3 hPa WNW 19.7 km/h 16.6 km/h 59.4% 0.0 mm W/m2
04:54 19.2 °C 9.7 °C 1017.4 hPa West 19.3 km/h 15.4 km/h 54.3% 0.2 mm W/m2
04:59 18.4 °C 4.7 °C 1017.2 hPa WNW 16.7 km/h 11.6 km/h 40.6% 0.2 mm W/m2
05:04 17.9 °C -1.8 °C 1017.1 hPa NW 12.4 km/h 10.3 km/h 26.4% 0.4 mm W/m2
05:09 17.6 °C -7.3 °C 1017.1 hPa WNW 5.5 km/h 3.4 km/h 17.8% 0.4 mm W/m2
05:14 17.4 °C -14.6 °C 1017.0 hPa NW 6.7 km/h 6.9 km/h 10.2% 0.6 mm W/m2
05:19 17.3 °C -25.8 °C 1017.0 hPa NW 7 km/h 7.1 km/h 4% 0.6 mm W/m2
05:24 17.3 °C -28.5 °C 1016.9 hPa NW 6.6 km/h 7.1 km/h 3% 0.6 mm W/m2
05:29 17.2 °C -28.5 °C 1016.9 hPa NW 9.8 km/h 8.7 km/h 3% 0.6 mm W/m2
05:34 17.2 °C -28.6 °C 1017.0 hPa NW 7.2 km/h 8.7 km/h 3% 0.6 mm W/m2
05:39 17.2 °C -28.5 °C 1017.0 hPa WNW 5.4 km/h 4.3 km/h 3% 0.8 mm W/m2
05:44 17.2 °C -28.5 °C 1017.1 hPa West 3.7 km/h 2.4 km/h 3% 0.8 mm W/m2
05:49 17.2 °C -28.5 °C 1017.1 hPa NW 3.7 km/h 2.6 km/h 3% 0.8 mm W/m2
05:54 17.2 °C -28.5 °C 1017.1 hPa NW 2.4 km/h 1.4 km/h 3% 0.8 mm W/m2
05:59 17.2 °C -28.6 °C 1016.9 hPa WNW 0.1 km/h 0.2 km/h 3% 0.6 mm W/m2
06:04 17.2 °C -28.6 °C 1016.9 hPa SW 3.2 km/h 2.3 km/h 3% 0.6 mm W/m2
06:09 17.1 °C -28.6 °C 1017.0 hPa SSE 1.7 km/h 1 km/h 3% 0.4 mm W/m2
06:14 17.1 °C -28.6 °C 1017.4 hPa SSW 2.7 km/h 1.8 km/h 3% 0.6 mm W/m2
06:19 17.1 °C -28.6 °C 1017.5 hPa SSW 3.1 km/h 2.6 km/h 3% 0.4 mm W/m2
06:24 17.1 °C -28.6 °C 1017.6 hPa SSW 2 km/h 1.4 km/h 3% 0.4 mm W/m2
06:29 17.1 °C -28.6 °C 1017.5 hPa SE 2.4 km/h 1.4 km/h 3% 0.4 mm W/m2
06:34 17.1 °C -28.6 °C 1017.4 hPa SSE 2.5 km/h 1.6 km/h 3% 0.4 mm W/m2
06:39 17.1 °C -28.6 °C 1017.3 hPa ESE 2.4 km/h 2.7 km/h 3% 0.4 mm W/m2
06:44 17.2 °C -28.5 °C 1017.2 hPa ESE 5.1 km/h 4.8 km/h 3% 0.2 mm W/m2
06:49 17.2 °C -28.5 °C 1017.4 hPa West 1.8 km/h 1 km/h 3% 0.2 mm W/m2
06:54 17.2 °C -28.5 °C 1017.5 hPa West 1.1 km/h 1.1 km/h 3% 0.2 mm W/m2
06:59 17.2 °C -28.6 °C 1017.4 hPa West 1.8 km/h 1.8 km/h 3% 0.2 mm W/m2
07:04 17.2 °C -28.6 °C 1017.2 hPa West 1.9 km/h 1.3 km/h 3% 0.2 mm W/m2
07:09 17.1 °C -28.6 °C 1016.8 hPa SSW 4.6 km/h 2.3 km/h 3% 0.2 mm W/m2
07:14 17 °C -28.7 °C 1016.5 hPa West 3.9 km/h 3.4 km/h 3% 0.2 mm W/m2
07:19 16.9 °C -28.7 °C 1016.2 hPa East 4.9 km/h 8.5 km/h 3% 0.0 mm W/m2
07:24 16.9 °C -28.7 °C 1015.9 hPa ESE 9 km/h 8.5 km/h 3% 0.0 mm W/m2
07:29 16.9 °C -28.7 °C 1016.1 hPa ESE 7.3 km/h 6.9 km/h 3% 0.0 mm W/m2
07:34 16.9 °C -28.7 °C 1016.1 hPa East 7.9 km/h 9 km/h 3% 0.0 mm W/m2
07:39 16.9 °C -28.7 °C 1015.9 hPa NE 12.9 km/h 12.2 km/h 3% 0.0 mm W/m2
07:44 16.9 °C -28.7 °C 1016.6 hPa WNW 16.4 km/h 14.8 km/h 3% 0.2 mm W/m2
07:49 16.9 °C -28.7 °C 1016.6 hPa North 8.9 km/h 9.2 km/h 3% 0.2 mm W/m2
07:54 17 °C -28.7 °C 1016.0 hPa WSW 4.2 km/h 3.4 km/h 3% 0.2 mm W/m2
07:59 17 °C -28.7 °C 1015.9 hPa SSW 2.4 km/h 1.1 km/h 3% 0.2 mm W/m2
08:04 17.1 °C -28.6 °C 1015.9 hPa SE 3.1 km/h 2.1 km/h 3% 0.2 mm W/m2
08:09 17.1 °C -28.6 °C 1015.9 hPa ESE 2.9 km/h 1.8 km/h 3% 0.2 mm W/m2
08:14 17.2 °C -28.6 °C 1016.0 hPa ESE 1.9 km/h 0.6 km/h 3% 0.2 mm W/m2
08:19 17.2 °C -28.5 °C 1015.9 hPa SE 1.9 km/h 0.8 km/h 3% 0.2 mm W/m2
08:24 17.2 °C -28.5 °C 1015.9 hPa SE 2.1 km/h 1.4 km/h 3% 0.2 mm W/m2
08:29 17.3 °C -28.5 °C 1015.9 hPa ESE 3.3 km/h 2.6 km/h 3% 0.2 mm W/m2
08:34 17.3 °C -28.5 °C 1015.9 hPa SE 4.2 km/h 2.4 km/h 3% 0.2 mm W/m2
08:39 17.3 °C -28.5 °C 1015.9 hPa SE 3.9 km/h 2.6 km/h 3% 0.2 mm W/m2
08:44 17.4 °C -28.4 °C 1015.8 hPa SE 5.6 km/h 3.7 km/h 3% 0.2 mm W/m2
08:49 17.4 °C -28.4 °C 1015.8 hPa South 3.3 km/h 2.9 km/h 3% 0.0 mm W/m2
08:54 17.5 °C -28.4 °C 1015.9 hPa SSW 3.2 km/h 2.4 km/h 3% 0.0 mm W/m2
08:59 17.5 °C -28.3 °C 1015.8 hPa SSE 5.1 km/h 3.7 km/h 3% 0.0 mm W/m2
09:04 17.6 °C -28.2 °C 1015.8 hPa SE 5.7 km/h 4 km/h 3% 0.0 mm W/m2
09:09 17.7 °C -28.2 °C 1015.8 hPa SE 3.3 km/h 3.2 km/h 3% 0.0 mm W/m2
09:14 17.8 °C -28.1 °C 1015.8 hPa ESE 7 km/h 6.8 km/h 3% 0.0 mm W/m2
09:19 18 °C -28 °C 1015.7 hPa ESE 4.5 km/h 4 km/h 3% 0.0 mm W/m2
09:23 18.1 °C -27.9 °C 1015.7 hPa ESE 6.2 km/h 5.5 km/h 3% 0.0 mm W/m2
09:29 18.3 °C -27.8 °C 1015.7 hPa ESE 5.6 km/h 4.7 km/h 3% 0.0 mm W/m2
09:34 18.4 °C -27.7 °C 1015.7 hPa ESE 5.4 km/h 3.2 km/h 3% 0.0 mm W/m2
09:39 18.7 °C -27.5 °C 1015.7 hPa ESE 4.4 km/h 3.9 km/h 3% 0.0 mm W/m2
09:44 18.8 °C -27.4 °C 1015.8 hPa SSE 6.3 km/h 5.6 km/h 3% 0.0 mm W/m2
09:49 19 °C -27.3 °C 1015.7 hPa South 5.7 km/h 4.2 km/h 3% 0.0 mm W/m2
09:54 19.3 °C -27.1 °C 1015.8 hPa SSW 6.8 km/h 4 km/h 3% 4.4 mm W/m2
09:59 19.5 °C -27 °C 1015.8 hPa WSW 5.6 km/h 5.8 km/h 3% 4.4 mm W/m2
10:04 19.7 °C -26.4 °C 1015.8 hPa SE 7.4 km/h 6.4 km/h 3.1% 4.4 mm W/m2
10:09 19.9 °C -23.2 °C 1015.8 hPa SE 6 km/h 4.7 km/h 4.4% 4.4 mm W/m2
10:14 20.2 °C -13.6 °C 1015.7 hPa SSE 5.5 km/h 6 km/h 9.1% 4.4 mm W/m2
10:19 20.5 °C -4.8 °C 1015.8 hPa South 7.4 km/h 5.6 km/h 18.1% 4.4 mm W/m2
10:24 20.7 °C 2.2 °C 1015.7 hPa SSE 9.3 km/h 8.5 km/h 29.9% 4.4 mm W/m2
10:29 20.7 °C 6.8 °C 1015.5 hPa SE 7.7 km/h 8.7 km/h 40.4% 4.4 mm W/m2
10:34 21 °C 6.8 °C 1015.4 hPa SSE 5.3 km/h 5.3 km/h 39.8% 4.4 mm W/m2
10:39 21.2 °C 9.3 °C 1015.4 hPa SSE 6.2 km/h 4.3 km/h 46.7% 4.4 mm W/m2
10:44 21.4 °C 11.5 °C 1015.4 hPa SE 6.6 km/h 5.8 km/h 53.3% 4.4 mm W/m2
10:49 21.8 °C 12.2 °C 1015.4 hPa South 5 km/h 6.1 km/h 54.7% 4.4 mm W/m2
10:54 22 °C 14 °C 1015.4 hPa SW 5.2 km/h 4 km/h 60.7% 4.4 mm W/m2
10:59 22.1 °C 14.8 °C 1015.4 hPa South 6.6 km/h 4.3 km/h 63% 0.0 mm W/m2
11:04 22.2 °C 15.8 °C 1015.4 hPa SW 5.4 km/h 3.4 km/h 67.1% 0.0 mm W/m2
11:09 22.3 °C 16.4 °C 1015.5 hPa SW 4.6 km/h 4.2 km/h 69.1% 0.0 mm W/m2
11:14 22.4 °C 16.5 °C 1015.5 hPa South 3.8 km/h 2.7 km/h 69.3% 0.0 mm W/m2
11:19 22.4 °C 16.7 °C 1015.7 hPa SW 3.2 km/h 2.3 km/h 70.1% 0.0 mm W/m2
11:24 22.5 °C 16.6 °C 1015.8 hPa SSW 2.9 km/h 2.6 km/h 69.5% 0.0 mm W/m2
11:29 22.6 °C 16.4 °C 1015.9 hPa SW 1.8 km/h 1.4 km/h 68.1% 0.0 mm W/m2
11:34 22.8 °C 17 °C 1015.9 hPa SSW 5.2 km/h 4 km/h 69.8% 0.0 mm W/m2
11:39 23.2 °C 17.5 °C 1015.8 hPa SE 4.9 km/h 3.9 km/h 70.5% 0.0 mm W/m2
11:44 23.6 °C 18 °C 1015.7 hPa SE 5.8 km/h 4.2 km/h 71% 0.0 mm W/m2
11:49 23.9 °C 18.3 °C 1015.6 hPa SW 5.7 km/h 5 km/h 70.8% 0.0 mm W/m2
11:54 24.1 °C 18.2 °C 1015.5 hPa South 4.6 km/h 5.5 km/h 70% 0.0 mm W/m2
11:59 24.4 °C 18.3 °C 1015.4 hPa East 6.8 km/h 6.1 km/h 68.9% 0.0 mm W/m2
12:04 24.4 °C 18.2 °C 1015.4 hPa ENE 6.1 km/h 5.1 km/h 68% 0.0 mm W/m2
12:09 24.4 °C 18.1 °C 1015.4 hPa ESE 7.6 km/h 4.3 km/h 68% 0.0 mm W/m2
12:14 24.4 °C 18 °C 1015.2 hPa SE 8 km/h 6.8 km/h 67.3% 0.0 mm W/m2
12:19 24.4 °C 17.9 °C 1015.1 hPa SSW 4.7 km/h 4.3 km/h 67% 0.0 mm W/m2
12:24 24.4 °C 17.7 °C 1015.1 hPa SSE 7.5 km/h 5 km/h 66.2% 0.0 mm W/m2
12:29 24.5 °C 17.6 °C 1015.1 hPa SW 6.2 km/h 5.5 km/h 65.6% 0.0 mm W/m2
12:34 24.4 °C 17.2 °C 1015.2 hPa SW 6.7 km/h 5.1 km/h 64.3% 0.0 mm W/m2
12:39 24.5 °C 17.6 °C 1015.2 hPa WSW 4.3 km/h 4 km/h 65.5% 0.0 mm W/m2
12:44 24.6 °C 18 °C 1015.3 hPa ESE 6.1 km/h 6 km/h 66.5% 0.0 mm W/m2
12:49 24.5 °C 17.6 °C 1015.3 hPa ESE 6.6 km/h 6.8 km/h 65.5% 0.0 mm W/m2
12:54 24.3 °C 17.5 °C 1015.2 hPa East 3.8 km/h 2.6 km/h 66% 0.0 mm W/m2
12:59 24.3 °C 17.5 °C 1015.2 hPa East 3.9 km/h 3.2 km/h 66% 0.0 mm W/m2
13:04 24.2 °C 17.4 °C 1015.2 hPa East 2.1 km/h 1.4 km/h 65.9% 0.0 mm W/m2
13:09 24.2 °C 17.2 °C 1015.1 hPa East 3.6 km/h 2.1 km/h 65% 0.0 mm W/m2
13:14 24 °C 17 °C 1015.0 hPa East 3.6 km/h 2.3 km/h 65% 0.0 mm W/m2
13:19 23.9 °C 16.9 °C 1015.0 hPa ENE 3.4 km/h 2.1 km/h 65% 0.0 mm W/m2
13:24 23.8 °C 17 °C 1015.7 hPa NW 5.7 km/h 11.6 km/h 65.7% 0.0 mm W/m2
13:27 23.6 °C 17.5 °C 1016.1 hPa WNW 25.4 km/h 37 km/h 68.9% 0.0 mm W/m2
13:34 18.5 °C 10.3 °C 1018.2 hPa WNW 39.9 km/h 31.5 km/h 59.2% 18.4 mm W/m2
13:39 17 °C -6 °C 1017.2 hPa NW 18.3 km/h 12.7 km/h 22.5% 21.4 mm W/m2
13:44 16.7 °C -28.2 °C 1017.1 hPa NW 14 km/h 13.5 km/h 3.3% 22.4 mm W/m2
13:49 16.6 °C -29 °C 1017.5 hPa NW 16.7 km/h 13.2 km/h 3% 22.8 mm W/m2
13:54 16.5 °C -29 °C 1018.5 hPa WNW 16.7 km/h 12.2 km/h 3% 23.2 mm W/m2
13:59 16.5 °C -29 °C 1018.9 hPa West 13.3 km/h 12.2 km/h 3% 23.4 mm W/m2
14:04 16.8 °C -28.8 °C 1018.9 hPa WNW 13 km/h 9.2 km/h 3% 23.8 mm W/m2
14:09 16.9 °C -28.7 °C 1018.3 hPa NW 7.1 km/h 6.3 km/h 3% 24.0 mm W/m2
14:14 16.9 °C -28.7 °C 1017.8 hPa NE 4.6 km/h 4 km/h 3% 24.4 mm W/m2
14:19 16.9 °C -28.7 °C 1017.1 hPa NE 8.4 km/h 8.7 km/h 3% 24.6 mm W/m2
14:24 16.9 °C -28.7 °C 1016.5 hPa NNE 8 km/h 6.4 km/h 3% 24.6 mm W/m2
14:29 16.8 °C -28.8 °C 1016.8 hPa ENE 3.4 km/h 2.6 km/h 3% 24.8 mm W/m2
14:34 16.8 °C -28.8 °C 1016.9 hPa East 3.6 km/h 3.4 km/h 3% 21.8 mm W/m2
14:36 16.8 °C -28.8 °C 1017.1 hPa ESE 1.9 km/h 0.8 km/h 3% 6.4 mm W/m2
14:44 16.8 °C -28.8 °C 1017.0 hPa ESE 2.8 km/h 1.8 km/h 3% 3.4 mm W/m2
14:49 16.8 °C -28.8 °C 1016.9 hPa ESE 3.2 km/h 1.9 km/h 3% 2.4 mm W/m2
14:54 16.8 °C -28.8 °C 1016.9 hPa East 4.1 km/h 3.2 km/h 3% 2.0 mm W/m2
14:59 16.9 °C -28.7 °C 1016.7 hPa ESE 5.5 km/h 3.7 km/h 3% 1.6 mm W/m2
15:04 17 °C -28.7 °C 1016.7 hPa East 2.6 km/h 2.9 km/h 3% 1.4 mm W/m2
15:09 17 °C -28.6 °C 1016.7 hPa ESE 5.5 km/h 6 km/h 3% 1.0 mm W/m2
15:14 17.1 °C -28.6 °C 1016.2 hPa ESE 6.1 km/h 6.4 km/h 3% 0.8 mm W/m2
15:19 17.3 °C -28.5 °C 1016.3 hPa SE 6.4 km/h 5.1 km/h 3% 0.4 mm W/m2
15:24 17.4 °C -28.4 °C 1016.5 hPa SE 4.4 km/h 4.5 km/h 3% 0.2 mm W/m2
15:29 17.6 °C -28.3 °C 1016.6 hPa ESE 5.4 km/h 4 km/h 3% 0.2 mm W/m2
15:34 17.6 °C -28.2 °C 1016.6 hPa SSW 6.3 km/h 5.1 km/h 3% 0.0 mm W/m2
15:39 17.7 °C -28.2 °C 1016.7 hPa SSW 5.3 km/h 3.5 km/h 3% 0.0 mm W/m2
15:44 17.6 °C -28.3 °C 1017.0 hPa SW 7.3 km/h 6.4 km/h 3% 0.0 mm W/m2
15:49 17.6 °C -28.3 °C 1017.0 hPa SW 3.7 km/h 2.6 km/h 3% 0.0 mm W/m2
15:54 17.7 °C -28.2 °C 1016.9 hPa South 3 km/h 2.6 km/h 3% 0.0 mm W/m2
15:59 17.9 °C -28 °C 1017.0 hPa SSW 5.4 km/h 4.2 km/h 3% 0.0 mm W/m2
16:04 18.1 °C -27.9 °C 1017.0 hPa East 5.5 km/h 3.7 km/h 3% 0.0 mm W/m2
16:09 17.9 °C -28 °C 1017.0 hPa ENE 4.5 km/h 3.1 km/h 3% 0.0 mm W/m2
16:14 18 °C -28 °C 1017.0 hPa South 2.8 km/h 1.9 km/h 3% 0.0 mm W/m2
16:19 18.2 °C -27.9 °C 1017.1 hPa SSW 3.7 km/h 3.1 km/h 3% 0.0 mm W/m2
16:24 18.2 °C -27.9 °C 1017.3 hPa WSW 3.3 km/h 2.6 km/h 3% 0.0 mm W/m2
16:29 18.3 °C -27.8 °C 1017.4 hPa SW 5.8 km/h 4.2 km/h 3% 0.0 mm W/m2
16:34 18.4 °C -27.7 °C 1017.5 hPa SW 6.1 km/h 4.7 km/h 3% 0.0 mm W/m2
16:39 18.6 °C -27.6 °C 1017.6 hPa SW 5.5 km/h 4.3 km/h 3% 0.0 mm W/m2
16:44 18.9 °C -27.4 °C 1017.7 hPa West 7.3 km/h 7.4 km/h 3% 0.0 mm W/m2
16:49 19 °C -27.3 °C 1017.6 hPa WNW 7 km/h 7.4 km/h 3% 0.0 mm W/m2
16:54 18.8 °C -27.5 °C 1017.5 hPa West 9.4 km/h 8 km/h 3% 0.0 mm W/m2
16:59 18.6 °C -27.6 °C 1017.5 hPa West 8 km/h 7.4 km/h 3% 0.0 mm W/m2
17:04 18.6 °C -27.6 °C 1017.4 hPa WSW 6.1 km/h 4.7 km/h 3% 0.0 mm W/m2
17:09 18.6 °C -27.6 °C 1017.5 hPa WSW 2.7 km/h 1.9 km/h 3% 0.0 mm W/m2
17:14 18.6 °C -27.6 °C 1017.6 hPa West 7.8 km/h 9.7 km/h 3% 0.0 mm W/m2
17:19 18.6 °C -27.6 °C 1017.7 hPa WNW 10.2 km/h 8.5 km/h 3% 0.0 mm W/m2
17:24 18.8 °C -27.5 °C 1017.9 hPa West 12.6 km/h 11.4 km/h 3% 0.0 mm W/m2
17:29 18.9 °C -27.4 °C 1017.9 hPa WNW 14.8 km/h 13 km/h 3% 0.0 mm W/m2
17:34 18.9 °C -27.3 °C 1018.0 hPa WNW 18.8 km/h 17.2 km/h 3% 0.0 mm W/m2
17:39 18.9 °C -27.3 °C 1018.1 hPa WNW 20.9 km/h 17.2 km/h 3% 0.0 mm W/m2
17:44 19.1 °C -19.8 °C 1018.2 hPa WNW 21.1 km/h 16.6 km/h 7% 0.0 mm W/m2
17:49 19.3 °C -4.2 °C 1018.2 hPa WNW 22.2 km/h 16.9 km/h 20.3% 0.0 mm W/m2
17:54 19.6 °C 2.7 °C 1018.4 hPa WNW 18.6 km/h 15.8 km/h 32.7% 0.0 mm W/m2
17:59 19.5 °C 6.3 °C 1018.5 hPa WNW 19.1 km/h 15.3 km/h 42.4% 0.0 mm W/m2
18:04 19.3 °C 7.2 °C 1018.5 hPa WNW 19.6 km/h 16.3 km/h 45.2% 0.0 mm W/m2
18:09 19.4 °C 9.8 °C 1018.6 hPa WNW 25.1 km/h 18.8 km/h 53.8% 0.0 mm W/m2
18:14 19.3 °C 11.1 °C 1018.6 hPa WNW 21.2 km/h 15.9 km/h 59% 0.0 mm W/m2
18:19 19.3 °C 11.2 °C 1018.7 hPa WNW 19.8 km/h 14.8 km/h 59.7% 0.0 mm W/m2
18:24 19.3 °C 11.1 °C 1018.8 hPa WNW 18.5 km/h 14.8 km/h 59.1% 0.0 mm W/m2
18:29 19.2 °C 11.3 °C 1018.8 hPa WNW 16.9 km/h 13 km/h 60.2% 0.0 mm W/m2
18:34 19.1 °C 11.1 °C 1018.9 hPa WNW 16.7 km/h 12.7 km/h 59.9% 0.0 mm W/m2
18:39 19 °C 10.4 °C 1018.9 hPa WNW 15.5 km/h 13 km/h 57.5% 0.0 mm W/m2
18:44 18.9 °C 10.6 °C 1019.0 hPa WNW 16.8 km/h 13.8 km/h 58.6% 0.0 mm W/m2
18:49 18.8 °C 11.4 °C 1019.0 hPa WNW 18.7 km/h 15.8 km/h 62.3% 0.0 mm W/m2
18:54 18.7 °C 10.8 °C 1019.0 hPa WNW 16.9 km/h 13.7 km/h 60.2% 0.0 mm W/m2
18:59 18.7 °C 10.5 °C 1019.1 hPa WNW 18.4 km/h 14 km/h 58.9% 0.0 mm W/m2
19:04 18.6 °C 10.5 °C 1019.1 hPa WNW 19.3 km/h 16.4 km/h 59.4% 0.0 mm W/m2
19:09 18.5 °C 9.5 °C 1019.1 hPa WNW 15.8 km/h 13.2 km/h 55.9% 0.0 mm W/m2
19:14 18.3 °C 8.1 °C 1019.1 hPa WNW 17.9 km/h 14.2 km/h 51.5% 0.0 mm W/m2
19:19 18 °C 8.4 °C 1019.1 hPa WNW 15.6 km/h 14.3 km/h 53.3% 0.0 mm W/m2
19:24 17.8 °C 7.7 °C 1019.1 hPa NW 16.1 km/h 14 km/h 51.7% 0.0 mm W/m2
19:29 17.7 °C 7 °C 1019.2 hPa WNW 17.1 km/h 11.7 km/h 49.4% 0.0 mm W/m2
19:34 17.7 °C 8.4 °C 1019.2 hPa WNW 17.9 km/h 13.8 km/h 54.3% 0.0 mm W/m2
19:39 17.7 °C 8.7 °C 1019.2 hPa WNW 13.7 km/h 12.4 km/h 55.6% 0.0 mm W/m2
19:44 17.6 °C 8.9 °C 1019.3 hPa WNW 14.2 km/h 12.2 km/h 56.6% 0.0 mm W/m2
19:49 17.6 °C 8.8 °C 1019.3 hPa WNW 13.8 km/h 10.3 km/h 56.3% 0.0 mm W/m2
19:54 17.6 °C 8.7 °C 1019.4 hPa WNW 15.4 km/h 11.9 km/h 55.8% 0.0 mm W/m2
19:59 17.6 °C 9 °C 1019.5 hPa WNW 14.8 km/h 11.7 km/h 57.1% 0.0 mm W/m2
20:04 17.6 °C 8.5 °C 1019.6 hPa WNW 12.8 km/h 11.6 km/h 55.3% 0.0 mm W/m2
20:09 17.5 °C 8.5 °C 1019.6 hPa WNW 13.2 km/h 11.4 km/h 55.7% 0.0 mm W/m2
20:14 17.4 °C 8.1 °C 1019.7 hPa WNW 12.2 km/h 11.1 km/h 54.3% 0.0 mm W/m2
20:19 17.2 °C 7.8 °C 1019.7 hPa WNW 13 km/h 10.5 km/h 54% 0.0 mm W/m2
Genderen, Netherlands, EU
Compliments of Weather Underground - 4 mb